createdAt,value
2023-04-04T00:04:14.557Z,38.94
2023-04-04T00:09:16.098Z,39.07
2023-04-04T00:14:17.744Z,38.56
2023-04-04T00:19:19.248Z,39.06
2023-04-04T00:24:20.791Z,38.45
2023-04-04T00:29:22.284Z,38.86
2023-04-04T00:34:23.774Z,38.95
2023-04-04T00:39:25.431Z,39.66
2023-04-04T00:44:27.001Z,39.41
2023-04-04T00:49:28.552Z,38.85
2023-04-04T00:54:30.603Z,38.97
2023-04-04T00:59:32.953Z,40.35
2023-04-04T01:04:35.851Z,40.09
2023-04-04T01:09:37.424Z,40.25
2023-04-04T01:14:39.032Z,39.93
2023-04-04T01:19:49.597Z,40.26
2023-04-04T01:24:56.104Z,40.56
2023-04-04T01:30:00.114Z,40.23
2023-04-04T01:35:12.093Z,40.83
2023-04-04T01:40:23.882Z,40.26
2023-04-04T01:45:28.224Z,39.43
2023-04-04T01:50:32.521Z,39.06
2023-04-04T01:55:34.281Z,39.79
2023-04-04T02:00:37.035Z,39.42
2023-04-04T02:05:38.512Z,39.83
2023-04-04T02:10:40.213Z,39.77
2023-04-04T02:15:42.036Z,40.04
2023-04-04T02:20:43.707Z,40.43
2023-04-04T02:25:45.186Z,39.97
2023-04-04T02:30:46.706Z,40.27
2023-04-04T02:35:48.295Z,40.39
2023-04-04T02:40:49.881Z,40.69
2023-04-04T02:45:51.504Z,40.36
2023-04-04T02:50:57.236Z,40.15
2023-04-04T02:55:58.807Z,41.33
2023-04-04T03:01:00.831Z,41.35
2023-04-04T03:06:07.316Z,41.37
2023-04-04T03:11:08.817Z,41.52
2023-04-04T03:16:10.726Z,41.05
2023-04-04T03:21:20.621Z,40.90
2023-04-04T03:26:22.184Z,40.50
2023-04-04T03:31:23.925Z,41.04
2023-04-04T03:36:25.462Z,42.75
2023-04-04T03:41:26.945Z,42.47
2023-04-04T03:46:29.063Z,42.27
2023-04-04T03:51:31.128Z,41.89
2023-04-04T03:56:32.853Z,42.27
2023-04-04T04:01:39.115Z,41.89
2023-04-04T04:06:40.807Z,42.09
2023-04-04T04:11:42.315Z,42.45
2023-04-04T04:16:43.813Z,42.48
2023-04-04T04:21:49.823Z,42.86
2023-04-04T04:26:52.037Z,42.80
2023-04-04T04:31:53.916Z,42.58
2023-04-04T04:36:58.641Z,43.02
2023-04-04T04:42:04.877Z,42.40
2023-04-04T04:47:07.413Z,42.56
2023-04-04T04:52:09.395Z,41.91
2023-04-04T04:57:14.963Z,42.35
2023-04-04T05:02:19.090Z,42.52
2023-04-04T05:07:22.140Z,42.41
2023-04-04T05:12:24.604Z,42.39
2023-04-04T05:17:27.821Z,42.52
2023-04-04T05:22:37.129Z,42.71
2023-04-04T05:27:39.605Z,42.93
2023-04-04T05:32:41.522Z,43.09
2023-04-04T05:37:50.645Z,43.29
2023-04-04T05:42:57.905Z,43.31
2023-04-04T05:48:05.597Z,42.91
2023-04-04T05:53:12.781Z,42.90
2023-04-04T05:58:20.609Z,42.84
2023-04-04T06:03:26.876Z,42.42
2023-04-04T06:08:28.658Z,40.63
2023-04-04T06:13:30.144Z,41.24
2023-04-04T06:18:37.136Z,41.66
2023-04-04T06:23:39.503Z,42.34
2023-04-04T06:28:50.928Z,41.68
2023-04-04T06:33:57.786Z,41.28
2023-04-04T06:38:59.752Z,40.76
2023-04-04T06:44:01.348Z,40.99
2023-04-04T06:49:03.001Z,40.94
2023-04-04T06:54:04.531Z,40.46
2023-04-04T06:59:06.071Z,41.49
2023-04-04T07:04:07.531Z,42.07
2023-04-04T07:09:15.391Z,41.58
2023-04-04T07:14:23.707Z,41.49
2023-04-04T07:19:25.206Z,41.60
2023-04-04T07:24:26.643Z,41.26
2023-04-04T07:29:28.054Z,41.21
2023-04-04T07:34:29.532Z,41.69
2023-04-04T07:39:30.973Z,40.76
2023-04-04T07:44:32.396Z,40.24
2023-04-04T07:49:33.875Z,40.92
2023-04-04T07:54:36.059Z,39.65
2023-04-04T07:59:37.496Z,37.99
2023-04-04T08:04:39.015Z,39.16
2023-04-04T08:09:40.588Z,38.58
2023-04-04T08:14:42.081Z,38.50
2023-04-04T08:19:43.523Z,38.29
2023-04-04T08:24:45.255Z,38.38
2023-04-04T08:29:46.777Z,37.80
2023-04-04T08:34:48.374Z,38.00
2023-04-04T08:39:49.832Z,37.69
2023-04-04T08:44:53.264Z,37.14
2023-04-04T08:49:54.875Z,37.44
2023-04-04T08:54:58.003Z,37.46
2023-04-04T09:00:00.108Z,36.36
2023-04-04T09:05:06.999Z,35.62
2023-04-04T09:10:10.040Z,34.43
2023-04-04T09:15:12.060Z,35.43
2023-04-04T09:20:35.212Z,34.92
2023-04-04T09:25:37.302Z,34.58
2023-04-04T09:30:38.861Z,35.63
2023-04-04T09:35:45.050Z,33.68
2023-04-04T09:40:46.606Z,34.11
2023-04-04T09:45:49.279Z,32.45
2023-04-04T09:50:51.308Z,32.73
2023-04-04T09:55:54.546Z,32.33
2023-04-04T10:01:00.513Z,30.64
2023-04-04T10:06:09.599Z,30.96
2023-04-04T10:11:12.571Z,29.99
2023-04-04T10:16:14.393Z,30.52
2023-04-04T10:21:17.312Z,30.88
2023-04-04T10:26:18.839Z,30.32
2023-04-04T10:31:25.858Z,29.75
2023-04-04T10:36:38.374Z,29.89
2023-04-04T10:41:40.859Z,29.27
2023-04-04T10:46:46.372Z,27.14
2023-04-04T10:51:56.512Z,26.97
2023-04-04T10:56:58.695Z,26.60
2023-04-04T11:02:02.337Z,29.21
2023-04-04T11:07:08.166Z,26.61
2023-04-04T11:12:10.110Z,28.34
2023-04-04T11:17:11.962Z,28.37
2023-04-04T11:22:14.511Z,28.79
2023-04-04T11:27:16.130Z,27.90
2023-04-04T11:33:03.826Z,27.68
2023-04-04T11:38:13.687Z,26.53
2023-04-04T11:43:15.163Z,27.96
2023-04-04T11:48:19.121Z,26.95
2023-04-04T11:53:20.686Z,25.74
2023-04-04T11:58:22.227Z,25.91
2023-04-04T12:03:24.043Z,25.51
2023-04-04T12:08:25.741Z,26.15
2023-04-04T12:13:31.035Z,25.72
2023-04-04T12:18:32.488Z,24.64
2023-04-04T12:23:34.824Z,24.55
2023-04-04T12:28:36.695Z,26.27
2023-04-04T12:33:40.279Z,23.89
2023-04-04T12:39:02.939Z,25.90
2023-04-04T12:44:06.256Z,25.70
2023-04-04T12:49:10.897Z,24.92
2023-04-04T12:54:31.741Z,25.56
2023-04-04T12:59:35.500Z,25.06
2023-04-04T13:04:37.588Z,24.53
2023-04-04T13:09:53.412Z,25.35
2023-04-04T13:14:59.745Z,26.02
2023-04-04T13:20:01.212Z,25.93
2023-04-04T13:25:03.799Z,24.82
2023-04-04T13:30:05.892Z,24.33
2023-04-04T13:35:07.966Z,24.96
2023-04-04T13:40:09.858Z,26.80
2023-04-04T13:45:11.727Z,25.79
2023-04-04T13:50:13.214Z,24.61
2023-04-04T13:55:14.691Z,24.90
2023-04-04T14:00:17.079Z,25.16
2023-04-04T14:05:19.082Z,25.11
2023-04-04T14:10:20.610Z,26.12
2023-04-04T14:15:22.066Z,25.96
2023-04-04T14:20:23.500Z,26.83
2023-04-04T14:25:24.939Z,25.95
2023-04-04T14:30:26.411Z,26.49
2023-04-04T14:35:27.890Z,25.67
2023-04-04T14:40:29.431Z,25.74
2023-04-04T14:45:30.935Z,25.04
2023-04-04T14:50:32.435Z,26.23
2023-04-04T14:55:33.886Z,26.31
2023-04-04T15:00:35.342Z,27.17
2023-04-04T15:05:36.769Z,25.32
2023-04-04T15:10:38.432Z,25.27
2023-04-04T15:15:40.201Z,26.28
2023-04-04T15:20:42.324Z,25.24
2023-04-04T15:25:43.922Z,25.25
2023-04-04T15:30:45.323Z,24.45
2023-04-04T15:35:46.746Z,23.81
2023-04-04T15:40:48.223Z,24.53
2023-04-04T15:45:50.179Z,24.04
2023-04-04T15:50:51.740Z,23.26
2023-04-04T15:55:53.164Z,23.10
2023-04-04T16:00:54.733Z,23.68
2023-04-04T16:05:56.192Z,23.35
2023-04-04T16:10:58.152Z,23.61
2023-04-04T16:15:59.709Z,23.89
2023-04-04T16:21:03.314Z,24.25
2023-04-04T16:26:05.222Z,23.45
2023-04-04T16:31:06.750Z,25.24
2023-04-04T16:36:08.396Z,25.84
2023-04-04T16:41:09.887Z,25.56
2023-04-04T16:46:11.439Z,26.02
2023-04-04T16:51:13.129Z,26.38
2023-04-04T16:56:14.612Z,25.80
2023-04-04T17:01:16.159Z,25.94
2023-04-04T17:06:17.659Z,26.64
2023-04-04T17:11:19.130Z,26.33
2023-04-04T17:16:20.580Z,27.70
2023-04-04T17:21:22.091Z,28.44
2023-04-04T17:26:23.601Z,28.83
2023-04-04T17:31:25.255Z,29.01
2023-04-04T17:36:26.778Z,28.62
2023-04-04T17:41:28.298Z,28.91
2023-04-04T17:46:29.908Z,29.51
2023-04-04T17:51:31.438Z,29.81
2023-04-04T17:56:32.876Z,29.85
2023-04-04T18:01:34.432Z,30.29
2023-04-04T18:06:38.429Z,30.25
2023-04-04T18:11:40.926Z,29.82
2023-04-04T18:16:42.534Z,29.83
2023-04-04T18:21:47.494Z,30.34
2023-04-04T18:26:48.931Z,31.26
2023-04-04T18:31:51.009Z,31.51
2023-04-04T18:36:52.570Z,32.28
2023-04-04T18:41:54.103Z,32.16
2023-04-04T18:46:55.621Z,32.82
2023-04-04T18:51:57.896Z,33.01
2023-04-04T18:56:59.387Z,33.31
2023-04-04T19:02:00.826Z,34.75
2023-04-04T19:07:05.808Z,34.07
2023-04-04T19:12:07.318Z,33.87
2023-04-04T19:17:08.774Z,33.09
2023-04-04T19:22:10.190Z,33.88
2023-04-04T19:27:11.644Z,34.75
2023-04-04T19:32:16.952Z,34.08
2023-04-04T19:37:18.569Z,34.21
2023-04-04T19:42:29.138Z,34.07
2023-04-04T19:47:30.721Z,35.21
2023-04-04T19:52:32.276Z,36.06
2023-04-04T19:57:34.017Z,35.62
2023-04-04T20:02:53.200Z,36.78
2023-04-04T20:07:55.678Z,36.63
2023-04-04T20:12:57.330Z,36.66
2023-04-04T20:17:58.978Z,37.91
2023-04-04T20:23:00.851Z,37.58
2023-04-04T20:28:05.165Z,37.73
2023-04-04T20:33:40.254Z,39.04
2023-04-04T20:38:41.995Z,38.18
2023-04-04T20:43:51.725Z,38.04
2023-04-04T20:48:54.650Z,38.43
2023-04-04T20:54:01.798Z,39.23
2023-04-04T20:59:28.613Z,39.44
2023-04-04T21:09:50.092Z,39.92
2023-04-04T21:15:03.862Z,39.37
2023-04-04T21:20:17.381Z,38.92
2023-04-04T21:25:42.836Z,39.09
2023-04-04T21:30:46.000Z,39.65
2023-04-04T21:35:57.291Z,39.52
2023-04-04T21:41:27.043Z,40.49
2023-04-04T21:46:34.181Z,40.33
2023-04-04T21:51:39.007Z,39.28
2023-04-04T21:56:41.614Z,39.24
2023-04-04T22:01:43.275Z,39.31
2023-04-04T22:06:44.890Z,39.37
2023-04-04T22:11:46.531Z,39.35
2023-04-04T22:16:48.345Z,39.39
2023-04-04T22:21:50.112Z,39.63
2023-04-04T22:26:51.750Z,39.32
2023-04-04T22:31:53.323Z,39.50
2023-04-04T22:36:54.936Z,40.27
2023-04-04T22:41:56.375Z,40.22
2023-04-04T22:46:57.801Z,39.65
2023-04-04T22:51:59.263Z,39.47
2023-04-04T22:57:00.762Z,40.34
2023-04-04T23:02:02.268Z,40.26
2023-04-04T23:07:03.697Z,39.92
2023-04-04T23:12:05.345Z,41.62
2023-04-04T23:17:06.808Z,41.31
2023-04-04T23:22:08.355Z,40.79
2023-04-04T23:27:10.125Z,40.11
2023-04-04T23:32:11.570Z,40.86
2023-04-04T23:37:13.007Z,40.59
2023-04-04T23:42:14.450Z,40.15
2023-04-04T23:47:15.929Z,40.83
2023-04-04T23:52:17.430Z,41.14
2023-04-04T23:57:18.868Z,41.48
